Latest Weather Observations for Rhyll

IDV60801

Issued at 10:05 am EST Saturday 2 August 2014 (issued every 30 minutes, with the page automatically refreshed every 10 minutes)

About weather observations | Map of weather stations | Latest weather observations for VIC | Other Formats
Station Details ID: 086373 Name: RHYLL Lat: -38.46 Lon: 145.31 Height: 13.4 m
Data from the previous 72 hours. | See also: Recent months at Rhyll
Date/Time
EST
Temp
°C
App
Temp
°C
Dew
Point
Rel
Hum
%
Delta-T
°C
Wind Press
QNH
hPa
Press
MSL
hPa
Rain
since 9 am
mm
Dir
 
Spd
km/h
Gust
km/h
Spd
kts
Gust
kts
02/10:00am 9.5 7.2 3.0 64 2.8 SW 4 6 2 3 1029.5 1029.5 0.2
02/09:30am 8.4 6.0 5.3 81 1.4 SSE 7 19 4 10 1029.1 - 0.2
02/09:00am 7.2 2.1 4.0 80 1.4 SE 20 30 11 16 1029.1 1029.1 7.0
02/08:30am 8.7 6.0 2.7 66 2.5 SW 6 13 3 7 1028.2 - 6.8
02/08:00am 8.6 5.2 2.0 63 2.7 SSW 9 15 5 8 1027.7 1027.7 6.8
02/07:30am 8.8 4.2 1.5 60 3.0 S 15 22 8 12 1027.2 - 6.8
02/07:00am 8.5 4.8 2.3 65 2.6 SSW 11 22 6 12 1026.6 1026.6 6.8
02/06:30am 8.7 4.6 2.5 65 2.6 SSW 13 26 7 14 1026.0 - 6.8
02/06:00am 7.1 4.1 1.8 69 2.1 W 7 11 4 6 1025.6 1025.6 6.8
02/05:30am 7.8 4.4 4.0 77 1.6 SSE 11 17 6 9 1025.0 - 6.8
02/05:00am 7.8 1.7 4.6 80 1.4 SSE 26 33 14 18 1024.6 1024.6 6.8
02/04:30am 8.3 5.1 3.0 69 2.2 SW 9 17 5 9 1024.3 - 6.8
02/04:00am 7.8 3.8 4.7 81 1.4 SSE 15 24 8 13 1024.0 1024.0 6.8
02/03:30am 8.7 4.2 2.3 64 2.7 SW 15 24 8 13 1023.6 - 6.4
02/03:00am 8.9 4.4 2.0 62 2.9 SSW 15 28 8 15 1023.3 1023.3 6.4
02/02:30am 8.2 4.2 2.9 69 2.2 SSW 13 24 7 13 1023.3 - 6.4
02/02:00am 8.4 2.8 3.7 72 2.0 S 22 39 12 21 1022.8 1022.8 6.4
02/01:30am 7.1 1.8 3.0 75 1.7 SSW 20 43 11 23 1022.2 - 6.4
02/01:00am 7.3 4.1 5.1 86 1.0 SSE 11 20 6 11 1022.0 1022.0 6.0
02/12:47am 7.8 1.3 4.9 82 1.3 S 28 46 15 25 1021.8 - 6.0
02/12:45am 8.4 1.2 5.0 79 1.5 S 32 46 17 25 1021.7 - 5.6
02/12:30am 7.3 3.8 5.6 89 0.8 S 13 19 7 10 1021.6 - 5.6
02/12:00am 6.5 -0.3 3.3 80 1.3 SSW 28 54 15 29 1021.3 1021.3 5.4
 
Date/Time
EST
Temp
°C
App
Temp
°C
Dew
Point
Rel
Hum
%
Delta-T
°C
Wind Press
QNH
hPa
Press
MSL
hPa
Rain
since 9 am
mm
Dir
 
Spd
km/h
Gust
km/h
Spd
kts
Gust
kts
01/11:59pm 6.7 -0.1 3.3 79 1.4 SSW 28 54 15 29 1021.3 - 5.2
01/11:30pm 9.1 3.7 2.2 62 2.9 SW 20 33 11 18 1020.7 - 4.4
01/11:00pm 8.7 3.0 3.1 68 2.4 S 22 43 12 23 1020.2 1020.2 4.4
01/10:30pm 9.3 3.7 3.7 68 2.4 SW 22 39 12 21 1019.6 - 4.4
01/10:00pm 8.0 2.4 3.7 74 1.8 S 22 37 12 20 1019.0 1019.0 4.4
01/09:48pm 9.0 2.0 4.0 71 2.2 SSW 30 52 16 28 1018.7 - 4.2
01/09:30pm 8.7 4.9 4.1 73 2.0 WSW 13 28 7 15 1018.3 - 3.8
01/09:00pm 7.6 3.9 4.7 82 1.3 SSW 13 22 7 12 1017.6 1017.6 3.8
01/08:38pm 7.0 -0.9 4.3 83 1.2 SSW 35 56 19 30 1017.2 - 3.8
01/08:35pm 7.6 -1.2 3.5 75 1.7 SSW 39 56 21 30 1017.1 - 3.8
01/08:30pm 9.2 3.9 2.1 61 3.0 SW 19 33 10 18 1016.7 - 3.6
01/08:17pm 9.4 2.3 1.3 57 3.3 SW 28 48 15 26 1016.4 - 3.6
01/08:00pm 9.4 4.0 2.7 63 2.8 SW 20 33 11 18 1016.1 1016.1 3.6
01/07:30pm 9.7 3.7 3.2 64 2.8 SSW 24 44 13 24 1015.3 - 3.6
01/07:00pm 9.3 3.0 3.5 67 2.5 SSW 26 41 14 22 1014.5 1014.5 3.6
01/06:33pm 8.6 2.0 4.0 73 2.0 S 28 48 15 26 1013.9 - 3.6
01/06:30pm 8.5 2.3 4.3 75 1.8 S 26 46 14 25 1013.7 - 3.6
01/06:18pm 8.3 1.4 4.7 78 1.6 S 30 52 16 28 1013.5 - 3.6
01/06:00pm 7.6 1.3 5.9 89 0.8 S 28 46 15 25 1012.9 1012.9 3.6
01/05:30pm 6.7 -0.1 5.3 91 0.6 S 30 48 16 26 1012.0 - 3.4
01/05:00pm 7.7 0.4 4.7 81 1.3 SW 32 56 17 30 1010.8 1010.8 2.4
01/04:30pm 7.0 0.0 4.0 81 1.3 SW 30 59 16 32 1009.9 - 2.4
01/04:00pm 8.2 1.5 3.7 73 1.9 SW 28 50 15 27 1009.0 1009.0 1.8
01/03:51pm 8.9 2.1 2.9 66 2.6 SW 28 50 15 27 1008.8 - 1.8
01/03:30pm 9.0 4.0 3.4 68 2.4 WSW 19 35 10 19 1008.3 - 1.8
01/03:00pm 9.6 4.4 2.7 62 3.0 WSW 19 43 10 23 1007.4 1007.4 1.8
01/02:30pm 9.9 4.7 3.6 65 2.7 WSW 20 44 11 24 1006.5 - 1.8
01/02:00pm 8.5 5.1 5.8 83 1.2 W 13 26 7 14 1005.8 1005.8 1.8
01/01:30pm 7.9 5.4 4.8 81 1.4 W 7 15 4 8 1005.5 - 0.6
01/01:00pm 9.2 6.2 5.9 80 1.5 W 11 19 6 10 1005.1 1005.1 0.6
01/12:30pm 7.2 2.4 5.7 90 0.7 W 20 35 11 19 1004.6 - 0.6
01/12:00pm 6.8 2.0 4.6 86 1.0 WNW 19 35 10 19 1004.2 1004.2 0.4
01/11:30am 6.9 2.0 4.2 83 1.2 WNW 19 39 10 21 1003.7 - 0.0
01/11:00am 8.3 3.3 3.4 71 2.1 NW 19 41 10 22 1003.1 1003.1 0.0
01/10:30am 8.5 3.6 3.9 73 2.0 NW 19 39 10 21 1002.9 - 0.0
01/10:00am 8.2 2.9 2.9 69 2.3 NW 20 44 11 24 1002.7 1002.7 0.0
01/09:30am 7.9 1.9 3.2 72 2.0 NW 24 43 13 23 1002.7 - 0.0
01/09:00am 7.6 2.9 3.1 73 1.9 NW 17 35 9 19 1002.5 1002.5 7.0
01/08:30am 8.0 1.3 3.7 74 1.8 NNW 28 48 15 26 1001.9 - 7.0
01/08:14am 7.8 0.1 3.3 73 1.9 NNW 33 54 18 29 1001.5 - 7.0
01/08:00am 7.9 1.1 3.2 72 2.0 NNW 28 46 15 25 1001.5 1001.5 7.0
01/07:30am 7.9 1.2 3.4 73 1.9 NNW 28 41 15 22 1001.5 - 7.0
01/07:00am 7.9 1.1 3.0 71 2.1 NNW 28 48 15 26 1001.0 1001.0 7.0
01/06:57am 7.8 0.9 2.7 70 2.1 NNW 28 48 15 26 1001.1 - 7.0
01/06:30am 7.7 2.4 3.0 72 2.0 NNW 20 37 11 20 1000.8 - 7.0
01/06:00am 7.8 2.4 2.7 70 2.2 NW 20 43 11 23 1000.5 1000.5 7.0
01/05:30am 8.0 0.9 3.5 73 1.9 NNW 30 50 16 27 999.7 - 7.0
01/05:27am 7.9 1.1 3.2 72 2.0 NNW 28 50 15 27 999.7 - 7.0
01/05:00am 7.8 2.6 3.5 74 1.8 NNW 20 41 11 22 1000.1 1000.1 7.0
01/04:30am 7.9 2.6 2.8 70 2.1 NW 20 44 11 24 1000.2 - 7.0
01/04:00am 7.8 3.1 3.3 73 1.9 NW 17 37 9 20 1000.2 1000.2 7.0
01/03:30am 8.0 3.0 3.7 74 1.8 NW 19 35 10 19 1000.4 - 7.0
01/03:00am 7.8 3.2 3.5 74 1.8 NW 17 33 9 18 1000.8 1000.8 7.0
01/02:30am 7.7 3.4 3.4 74 1.8 NW 15 30 8 16 1000.9 - 7.0
01/02:00am 7.8 3.1 3.3 73 1.9 WNW 17 33 9 18 1000.7 1000.7 7.0
01/01:30am 7.8 3.1 3.3 73 1.9 NW 17 35 9 19 1000.2 - 7.0
01/01:00am 7.8 3.1 3.1 72 2.0 WNW 17 32 9 17 1000.3 1000.3 7.0
01/12:30am 8.1 2.8 3.0 70 2.2 WNW 20 33 11 18 1000.1 - 7.0
01/12:00am 8.2 3.5 3.3 71 2.1 WNW 17 32 9 17 1000.3 1000.3 7.0
 
Date/Time
EST
Temp
°C
App
Temp
°C
Dew
Point
Rel
Hum
%
Delta-T
°C
Wind Press
QNH
hPa
Press
MSL
hPa
Rain
since 9 am
mm
Dir
 
Spd
km/h
Gust
km/h
Spd
kts
Gust
kts
31/11:30pm 8.4 3.8 3.7 72 2.0 WNW 17 35 9 19 1000.2 - 7.0
31/11:00pm 8.6 3.6 3.4 70 2.2 W 19 39 10 21 1000.3 1000.3 7.0
31/10:30pm 8.8 4.2 3.8 71 2.2 WNW 17 39 9 21 1000.2 - 6.8
31/10:00pm 8.6 4.5 4.4 75 1.9 WNW 15 32 8 17 999.8 999.8 6.8
31/09:30pm 8.5 2.9 3.6 71 2.1 W 22 37 12 20 999.5 - 6.8
31/09:00pm 8.9 4.4 4.1 72 2.1 WNW 17 35 9 19 999.2 999.2 6.8
31/08:30pm 9.2 4.4 4.6 73 2.0 WNW 19 33 10 18 999.4 - 6.8
31/08:00pm 9.2 4.6 5.4 77 1.7 NW 19 39 10 21 998.8 998.8 6.8
31/07:30pm 8.7 4.5 5.6 81 1.4 NW 17 32 9 17 998.6 - 6.8
31/07:00pm 8.5 4.7 6.0 84 1.1 NW 15 28 8 15 998.7 998.7 6.8
31/06:30pm 8.2 3.7 6.0 86 1.0 NW 19 35 10 19 998.2 - 6.8
31/06:00pm 7.8 3.6 5.9 88 0.9 WNW 17 30 9 16 998.3 998.3 6.8
31/05:30pm 7.4 2.6 5.7 89 0.8 W 20 33 11 18 998.0 - 6.6
31/05:00pm 7.6 2.4 5.7 88 0.9 W 22 48 12 26 997.9 997.9 5.8
31/04:30pm 8.0 3.0 6.5 90 0.7 W 22 41 12 22 997.5 - 5.4
31/04:00pm 8.4 4.1 7.2 92 0.6 W 19 35 10 19 996.8 996.8 4.0
31/03:30pm 8.4 4.0 7.2 92 0.6 W 20 46 11 25 996.2 - 3.6
31/03:00pm 9.2 3.4 7.8 91 0.7 WSW 28 50 15 27 995.4 995.4 2.2
31/02:30pm 10.6 4.9 8.5 87 1.0 W 28 46 15 25 994.6 - 0.4
31/02:18pm 13.1 5.4 7.1 67 2.9 WSW 37 56 20 30 993.7 - 0.0
31/02:00pm 15.9 9.6 7.4 57 4.3 NNW 30 54 16 29 992.0 992.0 0.0
31/01:30pm 15.9 8.1 8.2 60 3.9 NNW 39 57 21 31 992.3 - 0.0
31/01:00pm 16.3 6.2 7.5 56 4.4 NNW 50 80 27 43 992.7 992.7 0.0
31/12:36pm 16.2 5.3 7.4 56 4.4 NNW 54 76 29 41 993.1 - 0.0
31/12:30pm 16.4 5.8 7.1 54 4.6 NNW 52 69 28 37 993.4 - 0.0
31/12:00pm 15.9 4.7 7.4 57 4.3 NNW 56 76 30 41 993.9 993.9 0.0
31/11:30am 15.8 6.7 8.3 61 3.8 NNW 46 69 25 37 995.3 - 0.0
31/11:05am 15.6 5.7 8.1 61 3.8 NNW 50 69 27 37 996.2 - 0.0
31/11:00am 15.6 5.3 8.1 61 3.8 NNW 52 67 28 36 996.4 996.4 0.0
31/10:30am 15.4 4.2 8.4 63 3.5 NNW 57 78 31 42 996.6 - 0.0
31/10:08am 15.3 3.8 8.5 64 3.4 NNW 59 80 32 43 996.6 - 0.0
31/10:00am 15.0 3.5 8.7 66 3.2 NNW 59 74 32 40 996.8 996.8 0.0
31/09:42am 14.9 3.8 8.8 67 3.1 NNW 57 78 31 42 997.1 - 0.0
31/09:30am 14.8 2.9 8.7 67 3.1 NNW 61 80 33 43 996.7 - 0.0
31/09:04am 14.5 2.7 8.9 69 2.8 NNW 61 85 33 46 997.4 - 0.0
31/09:00am 14.5 3.1 8.9 69 2.9 NNW 59 74 32 40 997.5 997.5 0.4
31/08:36am 14.3 3.8 8.9 70 2.7 N 54 74 29 40 998.5 - 0.4
31/08:30am 14.2 3.7 8.8 70 2.7 N 54 70 29 38 998.6 - 0.4
31/08:00am 14.1 5.1 8.7 70 2.7 N 46 63 25 34 999.4 999.4 0.4
31/07:30am 13.8 6.1 8.6 71 2.6 N 39 57 21 31 1000.2 - 0.4
31/07:13am 13.7 5.6 8.7 72 2.5 N 41 59 22 32 1000.2 - 0.4
31/07:00am 13.6 5.5 8.7 72 2.5 N 41 54 22 29 1000.4 1000.4 0.4
31/06:30am 13.6 5.0 8.7 72 2.5 N 44 57 24 31 1000.7 - 0.4
31/06:00am 13.7 3.1 8.3 70 2.7 N 54 69 29 37 1000.5 1000.5 0.4
31/05:30am 13.7 3.4 8.3 70 2.7 N 52 69 28 37 1000.6 - 0.4
31/05:00am 13.9 4.7 8.1 68 2.9 N 46 61 25 33 1001.3 1001.3 0.4
31/04:30am 13.9 6.2 8.5 70 2.7 N 39 52 21 28 1001.9 - 0.4
31/04:00am 13.9 6.6 8.9 72 2.5 N 37 48 20 26 1002.7 1002.7 0.4
31/03:30am 14.3 5.9 8.9 70 2.7 N 43 52 23 28 1003.3 - 0.4
31/03:00am 14.6 5.9 8.5 67 3.1 N 44 61 24 33 1003.7 1003.7 0.4
31/02:59am 14.5 6.0 8.7 68 2.9 N 43 61 23 33 1003.7 - 0.4
31/02:30am 14.1 7.0 9.7 75 2.3 N 37 46 20 25 1004.2 - 0.4
31/02:00am 14.1 6.6 9.3 73 2.5 NNW 39 52 21 28 1004.6 1004.6 0.4
31/01:30am 14.3 6.8 9.5 73 2.5 NNW 39 57 21 31 1004.8 - 0.4
31/01:29am 14.2 7.1 9.6 74 2.4 NNW 37 57 20 31 1004.8 - 0.4
31/01:00am 14.2 8.1 9.8 75 2.3 NNW 32 44 17 24 1005.5 1005.5 0.4
31/12:30am 14.4 8.1 9.6 73 2.5 NNW 33 46 18 25 1006.1 - 0.4
31/12:13am 13.9 8.1 9.5 75 2.3 NNW 30 48 16 26 1006.3 - 0.4
31/12:00am 14.3 7.9 9.5 73 2.5 NNW 33 48 18 26 1006.6 1006.6 0.4
 
Date/Time
EST
Temp
°C
App
Temp
°C
Dew
Point
Rel
Hum
%
Delta-T
°C
Wind Press
QNH
hPa
Press
MSL
hPa
Rain
since 9 am
mm
Dir
 
Spd
km/h
Gust
km/h
Spd
kts
Gust
kts
30/11:49pm 14.3 7.9 9.5 73 2.5 NNW 33 56 18 30 1006.6 - 0.4
30/11:30pm 14.8 7.9 9.0 68 3.0 NNW 35 52 19 28 1006.9 - 0.4
30/11:00pm 14.4 8.1 9.0 70 2.8 NNW 32 46 17 25 1007.2 1007.2 0.4
30/10:30pm 14.8 7.2 9.2 69 2.9 NNW 39 50 21 27 1007.2 - 0.4
30/10:00pm 14.7 7.9 9.1 69 2.9 NNW 35 50 19 27 1007.3 1007.3 0.4
30/09:30pm 14.7 7.9 9.3 70 2.8 NNW 35 46 19 25 1007.7 - 0.4
30/09:00pm 15.1 8.7 9.2 68 3.0 NNW 33 52 18 28 1008.0 1008.0 0.4
30/08:51pm 14.9 9.5 9.5 70 2.8 NNW 28 46 15 25 1008.2 - 0.4
30/08:30pm 15.0 8.8 10.0 72 2.6 NNW 33 46 18 25 1007.9 - 0.4
30/08:00pm 14.7 9.1 10.3 75 2.3 NNW 30 44 16 24 1007.8 1007.8 0.4
30/07:30pm 14.5 8.6 10.3 76 2.2 NNW 32 41 17 22 1007.7 - 0.4
30/07:00pm 14.9 8.8 9.9 72 2.6 NNW 32 48 17 26 1008.0 1008.0 0.4
30/06:53pm 15.1 9.5 10.1 72 2.6 NNW 30 48 16 26 1008.1 - 0.4
30/06:30pm 15.0 9.4 10.2 73 2.5 NNW 30 46 16 25 1008.0 - 0.4
30/06:00pm 15.0 8.5 10.2 73 2.5 NNW 35 52 19 28 1007.8 1007.8 0.4
30/05:40pm 15.1 9.5 10.3 73 2.5 NNW 30 48 16 26 1007.7 - 0.4
30/05:30pm 15.1 9.2 10.3 73 2.5 NNW 32 46 17 25 1007.6 - 0.4
30/05:00pm 14.5 9.6 11.3 81 1.7 NNW 28 39 15 21 1007.7 1007.7 0.4
30/04:30pm 14.2 11.8 11.5 84 1.4 NW 15 26 8 14 1008.0 - 0.4
30/04:00pm 14.0 11.7 11.9 87 1.1 NW 15 24 8 13 1008.3 1008.3 0.4
30/03:30pm 15.1 12.5 12.1 82 1.6 NW 17 35 9 19 1008.1 - 0.4
30/03:00pm 14.3 12.4 11.8 85 1.3 NNW 13 22 7 12 1008.3 1008.3 0.0
30/02:30pm 14.6 12.3 11.6 82 1.6 NW 15 32 8 17 1008.1 - 0.0
30/02:00pm 15.2 11.9 10.8 75 2.3 NW 19 35 10 19 1008.5 1008.5 0.0
30/01:30pm 16.0 13.1 11.0 72 2.7 NW 17 32 9 17 1008.3 - 0.0
30/01:00pm 15.9 13.4 11.1 73 2.6 WNW 15 35 8 19 1009.2 1009.2 0.0
30/12:30pm 15.7 12.1 10.0 69 3.0 NW 19 35 10 19 1009.7 - 0.0
30/12:00pm 15.6 12.5 10.2 70 2.8 NW 17 32 9 17 1010.0 1010.0 0.0
30/11:30am 15.2 11.7 11.0 76 2.2 NNW 20 32 11 17 1010.5 - 0.0
30/11:00am 14.3 10.6 10.3 77 2.1 NNW 20 41 11 22 1011.2 1011.2 0.0
30/10:30am 13.9 11.1 9.9 77 2.1 NW 15 28 8 15 1011.6 - 0.0

Other Formats:

Comma delimited format used in spreadsheet applications
http://www.bom.gov.au/fwo/IDV60801/IDV60801.94892.axf

JavaScript Object Notation format (JSON) in row-major order
http://www.bom.gov.au/fwo/IDV60801/IDV60801.94892.json